createdAt,value
2023-03-28T00:00:01.651Z,-4.04
2023-03-28T00:01:01.642Z,-4.13
2023-03-28T00:02:01.638Z,-4.09
2023-03-28T00:03:01.672Z,-4.20
2023-03-28T00:04:01.712Z,-4.02
2023-03-28T00:05:01.607Z,-4.20
2023-03-28T00:06:01.898Z,-4.16
2023-03-28T00:07:01.591Z,-4.06
2023-03-28T00:08:01.624Z,-4.04
2023-03-28T00:09:01.601Z,-4.10
2023-03-28T00:10:01.593Z,-4.09
2023-03-28T00:11:01.535Z,-4.15
2023-03-28T00:12:01.537Z,-4.04
2023-03-28T00:13:01.515Z,-4.10
2023-03-28T00:14:01.569Z,-3.94
2023-03-28T00:15:01.505Z,-3.99
2023-03-28T00:16:01.819Z,-3.98
2023-03-28T00:17:01.476Z,-3.92
2023-03-28T00:18:01.546Z,-3.88
2023-03-28T00:19:01.449Z,-3.91
2023-03-28T00:20:01.490Z,-3.88
2023-03-28T00:21:01.441Z,-3.83
2023-03-28T00:22:01.444Z,-3.91
2023-03-28T00:23:01.409Z,-3.79
2023-03-28T00:24:01.407Z,-3.86
2023-03-28T00:25:01.415Z,-3.95
2023-03-28T00:26:01.544Z,-3.89
2023-03-28T00:27:01.395Z,-3.70
2023-03-28T00:28:01.367Z,-3.84
2023-03-28T00:29:01.627Z,-3.86
2023-03-28T00:30:01.340Z,-3.92
2023-03-28T00:31:01.388Z,-3.81
2023-03-28T00:32:01.395Z,-3.84
2023-03-28T00:33:01.377Z,-3.94
2023-03-28T00:34:01.375Z,-3.83
2023-03-28T00:35:01.312Z,-3.86
2023-03-28T00:36:01.647Z,-3.97
2023-03-28T00:37:01.291Z,-3.95
2023-03-28T00:38:01.295Z,-3.86
2023-03-28T00:39:01.262Z,-3.98
2023-03-28T00:40:01.244Z,-3.94
2023-03-28T00:41:01.217Z,-4.01
2023-03-28T00:42:01.215Z,-3.88
2023-03-28T00:43:01.211Z,-3.89
2023-03-28T00:44:01.223Z,-3.86
2023-03-28T00:45:01.185Z,-3.98
2023-03-28T00:46:09.093Z,-3.95
2023-03-28T00:47:02.196Z,-3.91
2023-03-28T00:48:01.182Z,-3.97
2023-03-28T00:49:01.146Z,-3.98
2023-03-28T00:50:01.195Z,-3.99
2023-03-28T00:51:01.114Z,-4.01
2023-03-28T00:52:01.135Z,-4.07
2023-03-28T00:53:01.109Z,-4.12
2023-03-28T00:54:01.096Z,-4.02
2023-03-28T00:55:01.082Z,-4.10
2023-03-28T00:56:01.208Z,-4.04
2023-03-28T00:57:01.079Z,-4.15
2023-03-28T00:58:01.043Z,-4.06
2023-03-28T00:59:01.030Z,-4.19
2023-03-28T01:00:01.028Z,-4.17
2023-03-28T01:01:01.009Z,-4.27
2023-03-28T01:02:01.062Z,-4.36
2023-03-28T01:03:01.035Z,-4.38
2023-03-28T01:04:00.984Z,-4.52
2023-03-28T01:05:00.989Z,-4.28
2023-03-28T01:06:01.065Z,-4.31
2023-03-28T01:07:00.949Z,-4.46
2023-03-28T01:08:00.984Z,-4.40
2023-03-28T01:09:00.941Z,-4.36
2023-03-28T01:10:00.913Z,-4.49
2023-03-28T01:11:00.912Z,-4.41
2023-03-28T01:12:00.886Z,-4.36
2023-03-28T01:13:00.876Z,-4.28
2023-03-28T01:14:00.923Z,-4.30
2023-03-28T01:15:00.884Z,-4.46
2023-03-28T01:16:01.028Z,-4.31
2023-03-28T01:17:00.837Z,-4.37
2023-03-28T01:18:00.839Z,-4.31
2023-03-28T01:19:00.815Z,-4.17
2023-03-28T01:20:00.878Z,-4.20
2023-03-28T01:21:00.799Z,-4.17
2023-03-28T01:22:00.782Z,-4.37
2023-03-28T01:23:00.771Z,-4.33
2023-03-28T01:24:11.719Z,-4.30
2023-03-28T01:25:01.783Z,-4.30
2023-03-28T01:26:00.944Z,-4.33
2023-03-28T01:27:00.731Z,-4.22
2023-03-28T01:28:00.714Z,-4.22
2023-03-28T01:29:00.711Z,-4.23
2023-03-28T01:30:00.706Z,-4.28
2023-03-28T01:31:00.687Z,-4.28
2023-03-28T01:32:00.733Z,-4.27
2023-03-28T01:33:00.684Z,-4.36
2023-03-28T01:34:00.652Z,-4.36
2023-03-28T01:35:00.663Z,-4.28
2023-03-28T01:36:00.876Z,-4.31
2023-03-28T01:37:00.623Z,-4.34
2023-03-28T01:38:00.649Z,-4.38
2023-03-28T01:39:00.602Z,-4.38
2023-03-28T01:40:00.630Z,-4.34
2023-03-28T01:41:00.590Z,-4.34
2023-03-28T01:42:00.564Z,-4.40
2023-03-28T01:43:00.561Z,-4.33
2023-03-28T01:44:00.601Z,-4.36
2023-03-28T01:45:00.536Z,-4.31
2023-03-28T01:46:00.795Z,-4.38
2023-03-28T01:47:00.514Z,-4.48
2023-03-28T01:48:00.539Z,-4.51
2023-03-28T01:49:00.497Z,-4.52
2023-03-28T01:50:00.531Z,-4.41
2023-03-28T01:51:00.471Z,-4.46
2023-03-28T01:52:00.477Z,-4.46
2023-03-28T01:53:00.452Z,-4.41
2023-03-28T01:54:00.437Z,-4.45
2023-03-28T01:55:00.429Z,-4.49
2023-03-28T01:56:00.652Z,-4.41
2023-03-28T01:57:00.525Z,-4.46
2023-03-28T01:58:00.406Z,-4.51
2023-03-28T01:59:00.404Z,-4.45
2023-03-28T02:00:00.374Z,-4.38
2023-03-28T02:01:00.383Z,-4.37
2023-03-28T02:02:00.449Z,-4.46
2023-03-28T02:03:00.542Z,-4.37
2023-03-28T02:04:00.330Z,-4.45
2023-03-28T02:05:00.326Z,-4.30
2023-03-28T02:06:00.525Z,-4.28
2023-03-28T02:07:00.301Z,-4.30
2023-03-28T02:08:00.332Z,-4.30
2023-03-28T02:09:00.280Z,-4.33
2023-03-28T02:10:00.268Z,-4.40
2023-03-28T02:11:00.267Z,-4.51
2023-03-28T02:12:00.288Z,-4.48
2023-03-28T02:13:00.241Z,-4.55
2023-03-28T02:14:00.267Z,-4.51
2023-03-28T02:15:00.236Z,-4.56
2023-03-28T02:16:00.447Z,-4.54
2023-03-28T02:17:00.215Z,-4.49
2023-03-28T02:18:00.312Z,-4.52
2023-03-28T02:19:00.180Z,-4.65
2023-03-28T02:20:00.200Z,-4.46
2023-03-28T02:21:00.173Z,-4.62
2023-03-28T02:22:00.152Z,-4.54
2023-03-28T02:23:00.142Z,-4.55
2023-03-28T02:24:00.154Z,-4.54
2023-03-28T02:25:00.152Z,-4.59
2023-03-28T02:26:00.268Z,-4.56
2023-03-28T02:27:00.128Z,-4.56
2023-03-28T02:28:00.143Z,-4.52
2023-03-28T02:29:00.105Z,-4.58
2023-03-28T02:30:00.069Z,-4.51
2023-03-28T02:31:00.094Z,-4.51
2023-03-28T02:32:00.165Z,-4.30
2023-03-28T02:33:00.086Z,-4.45
2023-03-28T02:34:00.036Z,-4.36
2023-03-28T02:35:00.018Z,-4.45
2023-03-28T02:36:00.273Z,-4.37
2023-03-28T02:37:00.007Z,-4.44
2023-03-28T02:38:00.019Z,-4.48
2023-03-28T02:38:59.975Z,-4.37
2023-03-28T02:39:59.973Z,-4.41
2023-03-28T02:40:59.954Z,-4.40
2023-03-28T02:41:59.942Z,-4.36
2023-03-28T02:42:59.940Z,-4.45
2023-03-28T02:43:59.977Z,-4.41
2023-03-28T02:44:59.915Z,-4.30
2023-03-28T02:46:00.123Z,-4.49
2023-03-28T02:47:01.298Z,-4.40
2023-03-28T02:47:59.917Z,-4.31
2023-03-28T02:48:59.873Z,-4.26
2023-03-28T02:49:59.900Z,-4.13
2023-03-28T02:50:59.869Z,-4.23
2023-03-28T02:51:59.845Z,-4.38
2023-03-28T02:52:59.828Z,-4.17
2023-03-28T02:53:59.820Z,-4.20
2023-03-28T02:54:59.812Z,-4.17
2023-03-28T02:55:59.963Z,-4.28
2023-03-28T02:56:59.821Z,-4.33
2023-03-28T02:57:59.801Z,-4.12
2023-03-28T02:58:59.767Z,-4.33
2023-03-28T02:59:59.772Z,-4.36
2023-03-28T03:00:59.815Z,-4.31
2023-03-28T03:01:59.778Z,-4.27
2023-03-28T03:02:59.753Z,-4.23
2023-03-28T03:03:59.821Z,-4.31
2023-03-28T03:04:59.701Z,-4.27
2023-03-28T03:05:59.842Z,-4.30
2023-03-28T03:06:59.682Z,-4.31
2023-03-28T03:07:59.722Z,-4.27
2023-03-28T03:08:59.664Z,-4.26
2023-03-28T03:09:59.647Z,-4.40
2023-03-28T03:10:59.658Z,-4.38
2023-03-28T03:11:59.633Z,-4.33
2023-03-28T03:12:59.622Z,-4.38
2023-03-28T03:13:59.638Z,-4.41
2023-03-28T03:14:59.599Z,-4.31
2023-03-28T03:15:59.829Z,-4.37
2023-03-28T03:16:59.587Z,-4.38
2023-03-28T03:17:59.595Z,-4.28
2023-03-28T03:18:59.568Z,-4.33
2023-03-28T03:19:59.590Z,-4.34
2023-03-28T03:20:59.554Z,-4.33
2023-03-28T03:21:59.520Z,-4.44
2023-03-28T03:22:59.512Z,-4.52
2023-03-28T03:23:59.538Z,-4.45
2023-03-28T03:24:59.492Z,-4.33
2023-03-28T03:25:59.683Z,-4.44
2023-03-28T03:26:59.531Z,-4.33
2023-03-28T03:27:59.454Z,-4.41
2023-03-28T03:28:59.447Z,-4.38
2023-03-28T03:29:59.455Z,-4.38
2023-03-28T03:30:59.491Z,-4.37
2023-03-28T03:31:59.485Z,-4.28
2023-03-28T03:32:59.448Z,-4.36
2023-03-28T03:33:59.387Z,-4.30
2023-03-28T03:34:59.394Z,-4.31
2023-03-28T03:35:59.672Z,-4.23
2023-03-28T03:36:59.369Z,-4.31
2023-03-28T03:37:59.413Z,-4.34
2023-03-28T03:38:59.340Z,-4.41
2023-03-28T03:39:59.325Z,-4.44
2023-03-28T03:40:59.335Z,-4.41
2023-03-28T03:41:59.317Z,-4.54
2023-03-28T03:42:59.312Z,-4.52
2023-03-28T03:43:59.332Z,-4.56
2023-03-28T03:44:59.276Z,-4.46
2023-03-28T03:45:59.638Z,-4.58
2023-03-28T03:46:59.256Z,-4.56
2023-03-28T03:47:59.321Z,-4.59
2023-03-28T03:48:59.241Z,-4.59
2023-03-28T03:49:59.260Z,-4.63
2023-03-28T03:50:59.224Z,-4.62
2023-03-28T03:51:59.228Z,-4.63
2023-03-28T03:52:59.203Z,-4.54
2023-03-28T03:53:59.176Z,-4.58
2023-03-28T03:54:59.173Z,-4.81
2023-03-28T03:55:59.377Z,-4.65
2023-03-28T03:56:59.192Z,-4.72
2023-03-28T03:57:59.145Z,-4.74
2023-03-28T03:58:59.132Z,-4.74
2023-03-28T03:59:59.114Z,-4.73
2023-03-28T04:00:59.109Z,-4.79
2023-03-28T04:01:59.158Z,-4.72
2023-03-28T04:02:59.134Z,-4.72
2023-03-28T04:03:59.164Z,-4.54
2023-03-28T04:04:59.062Z,-4.66
2023-03-28T04:05:59.231Z,-4.73
2023-03-28T04:06:59.080Z,-4.56
2023-03-28T04:07:59.102Z,-4.74
2023-03-28T04:08:59.020Z,-4.63
2023-03-28T04:09:59.010Z,-4.54
2023-03-28T04:10:59.001Z,-4.77
2023-03-28T04:11:58.991Z,-4.77
2023-03-28T04:12:58.977Z,-4.79
2023-03-28T04:13:59.031Z,-4.76
2023-03-28T04:14:58.973Z,-4.65
2023-03-28T04:15:59.123Z,-4.76
2023-03-28T04:16:58.935Z,-4.74
2023-03-28T04:17:58.989Z,-4.65
2023-03-28T04:18:58.926Z,-4.72
2023-03-28T04:19:58.937Z,-4.76
2023-03-28T04:20:58.899Z,-4.69
2023-03-28T04:21:58.880Z,-4.66
2023-03-28T04:22:58.874Z,-4.69
2023-03-28T04:23:58.860Z,-4.79
2023-03-28T04:24:58.860Z,-4.77
2023-03-28T04:25:59.319Z,-4.73
2023-03-28T04:26:58.834Z,-4.72
2023-03-28T04:27:58.823Z,-4.72
2023-03-28T04:28:58.824Z,-4.73
2023-03-28T04:29:58.810Z,-4.76
2023-03-28T04:30:58.806Z,-4.83
2023-03-28T04:31:58.839Z,-4.83
2023-03-28T04:32:58.797Z,-4.88
2023-03-28T04:33:58.761Z,-4.77
2023-03-28T04:34:58.750Z,-4.79
2023-03-28T04:35:59.161Z,-4.77
2023-03-28T04:36:58.728Z,-4.90
2023-03-28T04:37:58.748Z,-4.77
2023-03-28T04:38:58.722Z,-4.70
2023-03-28T04:39:58.697Z,-4.77
2023-03-28T04:40:58.690Z,-4.85
2023-03-28T04:41:58.781Z,-4.79
2023-03-28T04:42:58.662Z,-4.93
2023-03-28T04:43:58.710Z,-4.84
2023-03-28T04:44:58.645Z,-4.93
2023-03-28T04:45:58.882Z,-4.72
2023-03-28T04:46:58.634Z,-5.01
2023-03-28T04:47:58.621Z,-4.95
2023-03-28T04:48:58.600Z,-5.01
2023-03-28T04:49:58.662Z,-4.95
2023-03-28T04:50:58.587Z,-4.91
2023-03-28T04:51:58.724Z,-4.94
2023-03-28T04:52:58.566Z,-4.87
2023-03-28T04:53:58.554Z,-5.05
2023-03-28T04:54:58.539Z,-4.87
2023-03-28T04:55:58.833Z,-4.99
2023-03-28T04:56:58.548Z,-4.99
2023-03-28T04:57:58.516Z,-4.90
2023-03-28T04:58:58.501Z,-4.84
2023-03-28T04:59:58.490Z,-4.97
2023-03-28T05:00:58.873Z,-4.83
2023-03-28T05:01:58.572Z,-4.94
2023-03-28T05:02:58.541Z,-4.81
2023-03-28T05:03:58.455Z,-4.76
2023-03-28T05:04:58.429Z,-4.66
2023-03-28T05:05:58.421Z,-4.69
2023-03-28T05:06:58.409Z,-4.77
2023-03-28T05:07:58.481Z,-4.73
2023-03-28T05:08:58.395Z,-4.77
2023-03-28T05:09:58.392Z,-4.72
2023-03-28T05:10:58.595Z,-4.81
2023-03-28T05:11:58.357Z,-4.66
2023-03-28T05:12:58.345Z,-4.69
2023-03-28T05:13:58.372Z,-4.74
2023-03-28T05:14:58.343Z,-4.76
2023-03-28T05:15:58.341Z,-4.85
2023-03-28T05:16:58.299Z,-4.72
2023-03-28T05:17:58.365Z,-4.83
2023-03-28T05:18:59.065Z,-4.76
2023-03-28T05:19:58.315Z,-4.85
2023-03-28T05:20:58.471Z,-4.73
2023-03-28T05:21:58.255Z,-4.77
2023-03-28T05:22:58.236Z,-4.77
2023-03-28T05:23:58.249Z,-4.81
2023-03-28T05:24:58.233Z,-4.74
2023-03-28T05:25:58.257Z,-4.81
2023-03-28T05:26:58.193Z,-4.73
2023-03-28T05:27:58.188Z,-4.79
2023-03-28T05:28:58.176Z,-4.62
2023-03-28T05:29:58.171Z,-4.85
2023-03-28T05:30:58.335Z,-4.73
2023-03-28T05:31:58.312Z,-4.65
2023-03-28T05:32:58.250Z,-4.65
2023-03-28T05:33:58.124Z,-4.67
2023-03-28T05:34:58.113Z,-4.77
2023-03-28T05:35:58.126Z,-4.63
2023-03-28T05:36:58.118Z,-4.70
2023-03-28T05:37:58.122Z,-4.65
2023-03-28T05:38:58.074Z,-4.67
2023-03-28T05:39:58.084Z,-4.67
2023-03-28T05:40:58.198Z,-4.66
2023-03-28T05:41:58.046Z,-4.76
2023-03-28T05:42:58.039Z,-4.77
2023-03-28T05:43:58.073Z,-4.85
2023-03-28T05:44:58.005Z,-4.70
2023-03-28T05:45:58.031Z,-4.67
2023-03-28T05:46:57.987Z,-4.62
2023-03-28T05:47:58.020Z,-4.63
2023-03-28T05:48:57.964Z,-4.62
2023-03-28T05:49:57.997Z,-4.63
2023-03-28T05:50:58.152Z,-4.51
2023-03-28T05:51:57.935Z,-4.63
2023-03-28T05:52:57.922Z,-4.66
2023-03-28T05:53:57.925Z,-4.48
2023-03-28T05:54:57.909Z,-4.55
2023-03-28T05:55:57.933Z,-4.44
2023-03-28T05:56:57.902Z,-4.59
2023-03-28T05:57:57.889Z,-4.48
2023-03-28T05:58:57.855Z,-4.54
2023-03-28T05:59:57.849Z,-4.62
2023-03-28T06:00:58.035Z,-4.44
2023-03-28T06:01:57.862Z,-4.38
2023-03-28T06:02:57.856Z,-4.40
2023-03-28T06:03:57.814Z,-4.40
2023-03-28T06:04:57.878Z,-4.23
2023-03-28T06:05:57.788Z,-4.30
2023-03-28T06:06:57.777Z,-4.30
2023-03-28T06:07:57.817Z,-4.26
2023-03-28T06:08:57.750Z,-4.26
2023-03-28T06:09:57.741Z,-4.20
2023-03-28T06:10:57.860Z,-4.20
2023-03-28T06:11:57.740Z,-4.20
2023-03-28T06:12:57.708Z,-4.01
2023-03-28T06:13:57.744Z,-4.01
2023-03-28T06:14:57.690Z,-3.97
2023-03-28T06:15:57.679Z,-3.77
2023-03-28T06:16:57.724Z,-3.89
2023-03-28T06:17:57.727Z,-3.80
2023-03-28T06:19:10.445Z,-3.61
2023-03-28T06:19:58.707Z,-3.49
2023-03-28T06:20:57.806Z,-3.65
2023-03-28T06:21:57.614Z,-3.58
2023-03-28T06:22:57.601Z,-3.41
2023-03-28T06:23:57.594Z,-3.31
2023-03-28T06:24:57.581Z,-3.34
2023-03-28T06:25:57.661Z,-2.95
2023-03-28T06:26:57.572Z,-3.12
2023-03-28T06:27:57.573Z,-3.02
2023-03-28T06:28:57.539Z,-2.71
2023-03-28T06:29:57.535Z,-2.47
2023-03-28T06:30:57.623Z,-2.10
2023-03-28T06:31:57.757Z,-2.04
2023-03-28T06:32:57.535Z,-2.19
2023-03-28T06:33:57.495Z,-2.35
2023-03-28T06:34:57.480Z,-1.68
2023-03-28T06:35:57.498Z,-1.17
2023-03-28T06:36:57.467Z,-0.97
2023-03-28T06:37:57.523Z,-0.49
2023-03-28T06:38:57.439Z,-0.41
2023-03-28T06:39:57.468Z,-0.35
2023-03-28T06:40:57.478Z,0.02
2023-03-28T06:41:57.410Z,0.01
2023-03-28T06:42:57.399Z,0.20
2023-03-28T06:43:57.449Z,0.08
2023-03-28T06:44:57.379Z,0.25
2023-03-28T06:45:57.404Z,0.43
2023-03-28T06:46:57.352Z,0.10
2023-03-28T06:47:57.425Z,-0.05
2023-03-28T06:48:57.356Z,-0.08
2023-03-28T06:49:57.358Z,0.17
2023-03-28T06:50:57.429Z,0.60
2023-03-28T06:51:57.306Z,0.84
2023-03-28T06:52:57.292Z,1.35
2023-03-28T06:53:57.286Z,1.75
2023-03-28T06:54:57.278Z,1.86
2023-03-28T06:55:57.296Z,1.88
2023-03-28T06:56:57.290Z,1.18
2023-03-28T06:57:57.240Z,1.38
2023-03-28T06:58:57.223Z,1.74
2023-03-28T06:59:57.253Z,1.57
2023-03-28T07:00:57.342Z,1.54
2023-03-28T07:01:57.244Z,1.50
2023-03-28T07:02:57.272Z,1.90
2023-03-28T07:03:57.491Z,2.20
2023-03-28T07:04:57.171Z,1.85
2023-03-28T07:05:57.164Z,1.77
2023-03-28T07:06:57.146Z,1.95
2023-03-28T07:07:57.170Z,1.75
2023-03-28T07:08:57.122Z,1.56
2023-03-28T07:09:57.118Z,0.86
2023-03-28T07:10:57.125Z,0.95
2023-03-28T07:11:57.104Z,1.25
2023-03-28T07:12:57.081Z,1.79
2023-03-28T07:13:57.105Z,1.65
2023-03-28T07:14:57.076Z,1.68
2023-03-28T07:15:57.073Z,2.12
2023-03-28T07:16:57.080Z,1.57
2023-03-28T07:17:57.073Z,1.44
2023-03-28T07:18:57.053Z,1.61
2023-03-28T07:19:57.025Z,2.05
2023-03-28T07:21:03.854Z,2.51
2023-03-28T07:21:57.997Z,1.18
2023-03-28T07:22:56.974Z,0.71
2023-03-28T07:23:56.981Z,0.16
2023-03-28T07:24:56.954Z,-0.12
2023-03-28T07:25:56.988Z,-0.26
2023-03-28T07:27:11.849Z,-0.03
2023-03-28T07:27:57.926Z,0.26
2023-03-28T07:28:56.909Z,-0.44
2023-03-28T07:29:56.934Z,-0.60
2023-03-28T07:30:57.046Z,-0.23
2023-03-28T07:31:57.007Z,-0.17
2023-03-28T07:33:05.304Z,-0.30
2023-03-28T07:33:57.940Z,-0.38
2023-03-28T07:34:56.863Z,-0.12
2023-03-28T07:35:56.894Z,0.02
2023-03-28T07:36:56.831Z,-0.56
2023-03-28T07:37:56.843Z,-0.14
2023-03-28T07:38:56.931Z,0.10
2023-03-28T07:39:56.806Z,-0.56
2023-03-28T07:40:56.783Z,-0.73
2023-03-28T07:41:56.777Z,-1.03
2023-03-28T07:42:56.790Z,-1.33
2023-03-28T07:43:56.771Z,-1.36
2023-03-28T07:44:56.864Z,-1.25
2023-03-28T07:45:56.757Z,-1.15
2023-03-28T07:46:56.723Z,-1.11
2023-03-28T07:47:56.835Z,-0.93
2023-03-28T07:48:56.698Z,-0.89
2023-03-28T07:49:56.708Z,-0.56
2023-03-28T07:50:56.742Z,-0.58
2023-03-28T07:51:56.670Z,-0.53
2023-03-28T07:52:56.652Z,0.05
2023-03-28T07:53:56.647Z,-0.12
2023-03-28T07:54:56.634Z,0.04
2023-03-28T07:55:56.642Z,-0.30
2023-03-28T07:56:56.697Z,-0.39
2023-03-28T07:57:56.607Z,-0.02
2023-03-28T07:58:56.592Z,0.13
2023-03-28T07:59:56.585Z,0.15
2023-03-28T08:00:56.600Z,0.04
2023-03-28T08:01:56.567Z,0.05
2023-03-28T08:02:56.687Z,0.13
2023-03-28T08:03:56.750Z,0.82
2023-03-28T08:04:56.526Z,0.71
2023-03-28T08:05:56.621Z,0.38
2023-03-28T08:06:56.541Z,0.48
2023-03-28T08:07:56.501Z,1.02
2023-03-28T08:08:56.509Z,1.43
2023-03-28T08:09:58.863Z,1.61
2023-03-28T08:10:56.487Z,1.89
2023-03-28T08:11:56.474Z,2.04
2023-03-28T08:12:56.444Z,1.79
2023-03-28T08:13:56.443Z,1.75
2023-03-28T08:14:56.420Z,1.60
2023-03-28T08:15:56.491Z,1.60
2023-03-28T08:16:56.414Z,1.79
2023-03-28T08:17:56.424Z,2.01
2023-03-28T08:19:09.804Z,1.95
2023-03-28T08:19:57.419Z,1.39
2023-03-28T08:20:56.360Z,0.78
2023-03-28T08:21:56.371Z,0.63
2023-03-28T08:22:56.350Z,0.56
2023-03-28T08:23:56.330Z,1.07
2023-03-28T08:24:56.378Z,1.25
2023-03-28T08:25:56.307Z,1.77
2023-03-28T08:26:56.317Z,1.77
2023-03-28T08:27:56.292Z,2.15
2023-03-28T08:28:56.280Z,2.01
2023-03-28T08:29:56.264Z,1.90
2023-03-28T08:30:56.337Z,1.79
2023-03-28T08:31:56.254Z,1.93
2023-03-28T08:32:56.270Z,1.63
2023-03-28T08:33:56.248Z,2.26
2023-03-28T08:34:56.223Z,2.29
2023-03-28T08:35:56.277Z,2.05
2023-03-28T08:36:56.209Z,2.05
2023-03-28T08:37:56.177Z,2.37
2023-03-28T08:38:56.175Z,2.22
2023-03-28T08:39:56.154Z,1.47
2023-03-28T08:40:56.141Z,1.42
2023-03-28T08:41:56.135Z,0.84
2023-03-28T08:42:56.160Z,0.49
2023-03-28T08:43:56.110Z,1.20
2023-03-28T08:44:56.102Z,1.26
2023-03-28T08:45:56.113Z,0.78
2023-03-28T08:46:56.117Z,0.05
2023-03-28T08:47:56.098Z,0.23
2023-03-28T08:48:56.096Z,0.63
2023-03-28T08:49:56.047Z,1.17
2023-03-28T08:50:56.050Z,1.56
2023-03-28T08:51:56.052Z,1.52
2023-03-28T08:52:56.019Z,1.20
2023-03-28T08:53:56.002Z,0.52
2023-03-28T08:54:56.285Z,1.02
2023-03-28T08:55:55.992Z,1.29
2023-03-28T08:56:56.013Z,0.99
2023-03-28T08:57:55.961Z,1.24
2023-03-28T08:58:55.954Z,1.25
2023-03-28T08:59:55.940Z,1.20
2023-03-28T09:00:56.000Z,0.92
2023-03-28T09:01:56.011Z,1.32
2023-03-28T09:02:56.003Z,1.60
2023-03-28T09:03:56.078Z,2.02
2023-03-28T09:05:02.073Z,2.50
2023-03-28T09:05:56.889Z,2.50
2023-03-28T09:06:55.914Z,2.51
2023-03-28T09:07:56.217Z,3.02
2023-03-28T09:08:55.847Z,3.07
2023-03-28T09:09:55.841Z,2.51
2023-03-28T09:10:55.829Z,2.38
2023-03-28T09:11:55.827Z,2.23
2023-03-28T09:12:55.830Z,2.50
2023-03-28T09:13:55.794Z,2.30
2023-03-28T09:14:55.786Z,2.44
2023-03-28T09:15:55.789Z,2.71
2023-03-28T09:16:55.774Z,2.94
2023-03-28T09:17:55.812Z,2.81
2023-03-28T09:18:55.759Z,2.76
2023-03-28T09:19:55.723Z,2.80
2023-03-28T09:20:55.720Z,3.12
2023-03-28T09:22:05.049Z,3.33
2023-03-28T09:22:56.693Z,3.33
2023-03-28T09:23:55.707Z,3.04
2023-03-28T09:24:55.715Z,3.07
2023-03-28T09:25:55.659Z,2.95
2023-03-28T09:26:55.665Z,2.84
2023-03-28T09:27:55.639Z,3.17
2023-03-28T09:28:55.631Z,3.30
2023-03-28T09:29:55.618Z,3.33
2023-03-28T09:30:55.625Z,3.19
2023-03-28T09:31:55.681Z,3.46
2023-03-28T09:32:55.662Z,3.81
2023-03-28T09:33:55.592Z,3.50
2023-03-28T09:34:55.580Z,3.96
2023-03-28T09:35:55.570Z,3.53
2023-03-28T09:36:55.749Z,3.53
2023-03-28T09:37:55.542Z,3.26
2023-03-28T09:38:55.532Z,2.79
2023-03-28T09:39:55.541Z,3.10
2023-03-28T09:40:55.504Z,3.81
2023-03-28T09:41:55.489Z,3.81
2023-03-28T09:42:55.530Z,4.10
2023-03-28T09:43:57.302Z,3.93
2023-03-28T09:44:55.473Z,3.57
2023-03-28T09:45:55.500Z,3.53
2023-03-28T09:46:55.443Z,3.53
2023-03-28T09:47:55.540Z,3.93
2023-03-28T09:48:55.542Z,3.90
2023-03-28T09:50:02.464Z,4.18
2023-03-28T09:50:56.393Z,3.80
2023-03-28T09:51:55.430Z,3.81
2023-03-28T09:52:55.377Z,3.45
2023-03-28T09:53:55.410Z,3.45
2023-03-28T09:54:55.389Z,3.33
2023-03-28T09:56:04.499Z,2.90
2023-03-28T09:56:56.384Z,3.56
2023-03-28T09:57:55.316Z,3.84
2023-03-28T09:58:55.312Z,3.74
2023-03-28T09:59:55.297Z,3.88
2023-03-28T10:00:55.360Z,4.35
2023-03-28T10:01:55.385Z,3.75
2023-03-28T10:02:55.304Z,3.50
2023-03-28T10:03:55.264Z,3.60
2023-03-28T10:04:55.338Z,3.98
2023-03-28T10:05:55.230Z,3.88
2023-03-28T10:06:55.244Z,4.11
2023-03-28T10:07:55.227Z,4.06
2023-03-28T10:08:55.211Z,4.04
2023-03-28T10:09:55.198Z,3.90
2023-03-28T10:10:55.188Z,4.07
2023-03-28T10:11:55.208Z,4.21
2023-03-28T10:12:55.194Z,3.67
2023-03-28T10:13:55.156Z,3.72
2023-03-28T10:14:55.137Z,3.74
2023-03-28T10:15:55.153Z,4.02
2023-03-28T10:16:55.116Z,3.74
2023-03-28T10:17:55.157Z,3.54
2023-03-28T10:18:55.179Z,3.98
2023-03-28T10:19:55.082Z,4.10
2023-03-28T10:20:55.073Z,3.60
2023-03-28T10:21:55.056Z,3.75
2023-03-28T10:22:55.051Z,3.49
2023-03-28T10:23:55.043Z,3.75
2023-03-28T10:24:55.070Z,4.10
2023-03-28T10:25:55.026Z,3.92
2023-03-28T10:26:55.008Z,3.99
2023-03-28T10:27:55.013Z,4.11
2023-03-28T10:28:54.988Z,4.26
2023-03-28T10:29:54.972Z,4.10
2023-03-28T10:30:55.026Z,4.17
2023-03-28T10:31:54.962Z,4.10
2023-03-28T10:32:55.067Z,3.81
2023-03-28T10:33:54.929Z,4.08
2023-03-28T10:34:54.942Z,4.20
2023-03-28T10:35:54.942Z,3.84
2023-03-28T10:36:54.922Z,4.16
2023-03-28T10:37:54.887Z,3.86
2023-03-28T10:38:54.878Z,3.81
2023-03-28T10:39:54.867Z,3.98
2023-03-28T10:40:54.911Z,3.93
2023-03-28T10:41:54.843Z,3.75
2023-03-28T10:42:54.877Z,3.49
2023-03-28T10:43:54.844Z,3.46
2023-03-28T10:44:54.824Z,3.30
2023-03-28T10:45:54.824Z,3.01
2023-03-28T10:46:54.844Z,3.22
2023-03-28T10:47:54.893Z,3.84
2023-03-28T10:48:54.797Z,4.29
2023-03-28T10:49:54.756Z,4.24
2023-03-28T10:50:54.753Z,4.08
2023-03-28T10:51:54.758Z,4.04
2023-03-28T10:52:54.729Z,3.49
2023-03-28T10:53:54.710Z,3.28
2023-03-28T10:54:54.728Z,3.28
2023-03-28T10:55:54.697Z,3.39
2023-03-28T10:56:54.762Z,3.74
2023-03-28T10:57:54.687Z,3.89
2023-03-28T10:58:54.663Z,4.14
2023-03-28T10:59:54.671Z,4.02
2023-03-28T11:00:54.662Z,4.35
2023-03-28T11:01:54.659Z,4.28
2023-03-28T11:02:54.687Z,4.13
2023-03-28T11:03:54.688Z,4.04
2023-03-28T11:04:54.606Z,3.88
2023-03-28T11:06:08.098Z,4.06
2023-03-28T11:06:55.593Z,3.59
2023-03-28T11:07:54.561Z,3.80
2023-03-28T11:08:54.555Z,3.84
2023-03-28T11:09:54.550Z,3.60
2023-03-28T11:10:54.533Z,3.62
2023-03-28T11:11:54.514Z,3.98
2023-03-28T11:12:56.156Z,4.18
2023-03-28T11:13:54.495Z,3.77
2023-03-28T11:14:54.502Z,3.41
2023-03-28T11:15:54.530Z,3.90
2023-03-28T11:16:54.476Z,4.06
2023-03-28T11:17:54.475Z,4.25
2023-03-28T11:18:54.457Z,4.32
2023-03-28T11:19:54.440Z,4.42
2023-03-28T11:20:54.422Z,4.44
2023-03-28T11:21:54.411Z,4.46
2023-03-28T11:23:05.107Z,4.17
2023-03-28T11:23:55.385Z,4.16
2023-03-28T11:24:54.393Z,4.46
2023-03-28T11:25:54.385Z,4.53
2023-03-28T11:27:02.195Z,4.11
2023-03-28T11:27:55.365Z,4.35
2023-03-28T11:28:54.341Z,4.83
2023-03-28T11:29:54.324Z,5.01
2023-03-28T11:30:54.347Z,5.02
2023-03-28T11:31:54.344Z,4.91
2023-03-28T11:32:54.307Z,4.74
2023-03-28T11:33:54.289Z,4.77
2023-03-28T11:34:54.281Z,4.65
2023-03-28T11:35:54.280Z,4.67
2023-03-28T11:36:54.264Z,4.62
2023-03-28T11:37:54.245Z,4.10
2023-03-28T11:38:54.235Z,4.11
2023-03-28T11:39:54.224Z,4.42
2023-03-28T11:40:54.205Z,4.44
2023-03-28T11:41:54.193Z,4.69
2023-03-28T11:42:54.218Z,4.28
2023-03-28T11:43:54.170Z,4.31
2023-03-28T11:44:54.175Z,4.44
2023-03-28T11:45:54.190Z,4.57
2023-03-28T11:46:54.227Z,4.39
2023-03-28T11:47:54.171Z,4.47
2023-03-28T11:48:54.148Z,4.67
2023-03-28T11:49:54.114Z,4.80
2023-03-28T11:50:54.110Z,5.02
2023-03-28T11:51:54.083Z,5.06
2023-03-28T11:52:54.076Z,4.88
2023-03-28T11:53:54.066Z,5.04
2023-03-28T11:54:54.069Z,4.31
2023-03-28T11:55:54.038Z,4.31
2023-03-28T11:56:54.071Z,4.47
2023-03-28T11:57:54.019Z,4.62
2023-03-28T11:58:54.010Z,4.74
2023-03-28T11:59:53.997Z,4.77
2023-03-28T12:00:54.046Z,4.88
2023-03-28T12:01:53.991Z,5.33
2023-03-28T12:02:54.243Z,5.37
2023-03-28T12:03:54.103Z,4.97
2023-03-28T12:04:53.949Z,4.96
2023-03-28T12:06:02.573Z,5.09
2023-03-28T12:07:02.350Z,4.79
2023-03-28T12:07:54.907Z,5.01
2023-03-28T12:08:53.902Z,4.56
2023-03-28T12:09:53.891Z,4.13
2023-03-28T12:10:53.891Z,4.08
2023-03-28T12:11:53.881Z,4.31
2023-03-28T12:12:53.895Z,4.24
2023-03-28T12:14:09.001Z,4.43
2023-03-28T12:14:54.831Z,5.08
2023-03-28T12:15:53.821Z,4.94
2023-03-28T12:16:53.887Z,4.87
2023-03-28T12:17:53.866Z,5.15
2023-03-28T12:18:53.874Z,5.14
2023-03-28T12:19:53.969Z,4.96
2023-03-28T12:20:53.771Z,5.15
2023-03-28T12:21:53.761Z,4.53
2023-03-28T12:22:53.764Z,4.80
2023-03-28T12:23:53.744Z,4.46
2023-03-28T12:24:53.767Z,4.38
2023-03-28T12:25:53.723Z,4.68
2023-03-28T12:26:55.947Z,4.96
2023-03-28T12:27:53.691Z,5.12
2023-03-28T12:28:53.765Z,5.11
2023-03-28T12:29:53.701Z,4.83
2023-03-28T12:30:53.741Z,4.74
2023-03-28T12:31:53.658Z,4.67
2023-03-28T12:32:53.705Z,4.51
2023-03-28T12:33:53.630Z,4.65
2023-03-28T12:34:53.639Z,4.28
2023-03-28T12:35:53.692Z,3.98
2023-03-28T12:36:53.638Z,4.25
2023-03-28T12:37:53.583Z,4.39
2023-03-28T12:38:55.665Z,4.67
2023-03-28T12:39:54.934Z,4.62
2023-03-28T12:40:53.576Z,4.32
2023-03-28T12:41:53.551Z,4.59
2023-03-28T12:42:53.547Z,4.21
2023-03-28T12:43:53.518Z,4.65
2023-03-28T12:44:53.511Z,4.90
2023-03-28T12:45:53.522Z,4.97
2023-03-28T12:46:53.531Z,4.88
2023-03-28T12:47:53.545Z,5.19
2023-03-28T12:48:53.496Z,5.15
2023-03-28T12:49:53.454Z,5.24
2023-03-28T12:50:53.446Z,5.41
2023-03-28T12:51:53.606Z,5.05
2023-03-28T12:52:53.456Z,4.68
2023-03-28T12:53:53.410Z,4.59
2023-03-28T12:54:53.441Z,4.96
2023-03-28T12:55:53.388Z,4.90
2023-03-28T12:56:53.409Z,4.79
2023-03-28T12:57:53.369Z,4.83
2023-03-28T12:58:53.374Z,4.87
2023-03-28T12:59:53.347Z,4.64
2023-03-28T13:00:53.346Z,4.69
2023-03-28T13:01:53.348Z,4.75
2023-03-28T13:02:53.362Z,4.50
2023-03-28T13:03:53.322Z,4.14